Elsinore, UT

12:48 AM MDT on October 23, 2019 (GMT -0600)
ElsinoreBench | | Change Station

Elev 5410 ft 38.69 °N, 112.15 °W | Updated 17 seconds ago

Clear
Clear
37.8 °F
Feels Like 38 °F
N
0.2
Wind Variable Wind from SW
Gusts 1.1 mph

Today
High -- | Low -- °F
--% Chance of Precip.
Yesterday
High -- | Low -- °F
Precip. -- in
Pressure 30.15 in
Visibility 10.0 miles
Clouds Clear
Windchill 38 °F
Dew Point 21 °F
Humidity 50%
Rainfall 0.00 in
Snow Depth Not available.
7:45 AM 6:39 PM
Waning Crescent, 31% visible
METAR KMLF 230552Z AUTO 28004KT 10SM CLR 07/M05 A3023 RMK AO2 SLP209 T00721050 10183 20033 58000
Pressure 30.15 in
Visibility 10.0 miles
Clouds Clear
Windchill 38 °F
Dew Point 21 °F
Humidity 50%
Rainfall 0.00 in
Snow Depth Not available.
7:45 AM 6:39 PM
Waning Crescent, 31% visible
METAR KMLF 230552Z AUTO 28004KT 10SM CLR 07/M05 A3023 RMK AO2 SLP209 T00721050 10183 20033 58000

Get Severe Weather Alerts

Thanks for signing up!

Be on the lookout for a verification email in your inbox.

You'll start receiving the daily forecast at 6 AM.

×

10-Day Weather Forecast

Almanac

Astronomy

Oct. 23, 2019 Rise Set
Actual Time
Civil Twilight
Nautical Twilight
Astronomical Twilight
Moon
Length of Visible Light
Length of Day
Tomorrow will be .
, % of the Moon is Illuminated

Today's Extremes

State Highs State Lows

Community

WunderPhotos

Category 6

Welcome to Category 6. This is the collective home for Weather Underground's featured writeups by Dr. Jeff Masters (right), Bob Henson (left), Chris Burt, and other regular contributors.

Nearby

Air Quality

  Air Quality AQ Index Pollutant
Not available.

Snow Depth

Station Depth Elevation

Earthquake Activity

City Distance Mag. Time & Date
Minimum magnitude displayed is 2.5.

Coastal Water Temperatures

Place Temperature

Stations

Nearby Weather Stations

Station Location Temp. Windchill Dew Point Humidity Wind Precip. Elev Updated Type
                   

Watches & Warnings

There are currently no watches in effect.